createdAt,value
2022-12-29T00:02:13.241Z,100.00
2022-12-29T00:04:45.299Z,100.00
2022-12-29T00:07:17.766Z,100.00
2022-12-29T00:09:50.211Z,100.00
2022-12-29T00:12:22.314Z,100.00
2022-12-29T00:15:12.682Z,100.00
2022-12-29T00:17:44.607Z,100.00
2022-12-29T00:20:35.148Z,100.00
2022-12-29T00:23:28.450Z,100.00
2022-12-29T00:26:23.471Z,100.00
2022-12-29T00:29:13.826Z,100.00
2022-12-29T00:32:04.541Z,100.00
2022-12-29T00:34:54.896Z,100.00
2022-12-29T00:37:47.131Z,100.00
2022-12-29T00:40:37.500Z,100.00
2022-12-29T00:43:28.268Z,100.00
2022-12-29T00:46:00.278Z,100.00
2022-12-29T00:48:50.571Z,100.00
2022-12-29T00:51:22.550Z,100.00
2022-12-29T00:53:54.580Z,100.00
2022-12-29T00:56:26.687Z,100.00
2022-12-29T00:59:06.953Z,100.00
2022-12-29T01:01:40.402Z,100.00
2022-12-29T01:04:13.045Z,100.00
2022-12-29T01:06:45.112Z,100.00
2022-12-29T01:09:36.499Z,100.00
2022-12-29T01:12:10.189Z,100.00
2022-12-29T01:14:42.219Z,100.00
2022-12-29T01:17:14.209Z,100.00
2022-12-29T01:19:46.597Z,100.00
2022-12-29T01:22:18.611Z,100.00
2022-12-29T01:24:50.743Z,100.00
2022-12-29T01:27:22.773Z,100.00
2022-12-29T01:29:54.746Z,100.00
2022-12-29T01:32:26.855Z,100.00
2022-12-29T01:34:58.802Z,100.00
2022-12-29T01:37:31.009Z,100.00
2022-12-29T01:40:03.267Z,100.00
2022-12-29T01:42:35.331Z,100.00
2022-12-29T01:45:14.184Z,100.00
2022-12-29T01:47:58.989Z,100.00
2022-12-29T01:50:36.495Z,100.00
2022-12-29T01:53:27.342Z,100.00
2022-12-29T01:56:06.182Z,100.00
2022-12-29T01:58:44.291Z,100.00
2022-12-29T02:01:19.690Z,100.00
2022-12-29T02:03:52.976Z,100.00
2022-12-29T02:06:30.757Z,100.00
2022-12-29T02:09:02.960Z,100.00
2022-12-29T02:11:37.721Z,100.00
2022-12-29T02:14:12.796Z,100.00
2022-12-29T02:17:17.425Z,100.00
2022-12-29T02:20:01.885Z,100.00
2022-12-29T02:22:51.894Z,100.00
2022-12-29T02:25:46.429Z,100.00
2022-12-29T02:29:08.631Z,100.00
2022-12-29T02:31:50.235Z,100.00
2022-12-29T02:35:03.697Z,100.00
2022-12-29T02:37:53.072Z,100.00
2022-12-29T02:40:41.032Z,100.00
2022-12-29T02:43:45.022Z,100.00
2022-12-29T02:46:48.857Z,100.00
2022-12-29T02:49:36.913Z,100.00
2022-12-29T02:52:17.144Z,100.00
2022-12-29T02:54:50.960Z,100.00
2022-12-29T02:57:22.794Z,100.00
2022-12-29T03:00:24.738Z,100.00
2022-12-29T03:03:17.082Z,100.00
2022-12-29T03:06:15.837Z,100.00
2022-12-29T03:08:50.788Z,100.00
2022-12-29T03:11:47.780Z,100.00
2022-12-29T03:14:52.331Z,100.00
2022-12-29T03:18:08.487Z,100.00
2022-12-29T03:20:55.716Z,100.00
2022-12-29T03:23:29.705Z,100.00
2022-12-29T03:26:06.656Z,100.00
2022-12-29T03:28:47.664Z,100.00
2022-12-29T03:31:21.405Z,100.00
2022-12-29T03:33:56.733Z,100.00
2022-12-29T03:36:47.623Z,100.00
2022-12-29T03:39:23.453Z,100.00
2022-12-29T03:42:04.262Z,100.00
2022-12-29T03:44:45.827Z,100.00
2022-12-29T03:47:17.914Z,100.00
2022-12-29T03:49:51.374Z,100.00
2022-12-29T03:52:23.374Z,100.00
2022-12-29T03:54:55.323Z,100.00
2022-12-29T03:57:27.279Z,100.00
2022-12-29T03:59:59.214Z,100.00
2022-12-29T04:02:31.506Z,100.00
2022-12-29T04:05:03.997Z,100.00
2022-12-29T04:07:35.962Z,100.00
2022-12-29T04:10:08.406Z,100.00
2022-12-29T04:12:42.685Z,100.00
2022-12-29T04:15:14.768Z,100.00
2022-12-29T04:17:46.775Z,100.00
2022-12-29T04:20:37.024Z,100.00
2022-12-29T04:23:09.177Z,100.00
2022-12-29T04:25:41.187Z,100.00
2022-12-29T04:28:13.168Z,100.00
2022-12-29T04:30:47.742Z,100.00
2022-12-29T04:33:20.647Z,100.00
2022-12-29T04:35:55.025Z,100.00
2022-12-29T04:38:27.061Z,100.00
2022-12-29T04:41:02.473Z,100.00
2022-12-29T04:43:34.420Z,100.00
2022-12-29T04:46:06.893Z,100.00
2022-12-29T04:48:39.395Z,100.00
2022-12-29T04:51:11.321Z,100.00
2022-12-29T04:53:43.288Z,100.00
2022-12-29T04:56:15.210Z,100.00
2022-12-29T04:58:47.155Z,100.00
2022-12-29T05:01:19.189Z,100.00
2022-12-29T05:03:53.099Z,100.00
2022-12-29T05:06:25.141Z,100.00
2022-12-29T05:08:57.101Z,100.00
2022-12-29T05:11:29.020Z,100.00
2022-12-29T05:14:01.012Z,100.00
2022-12-29T05:16:33.050Z,100.00
2022-12-29T05:19:05.612Z,100.00
2022-12-29T05:21:37.556Z,100.00
2022-12-29T05:24:09.642Z,100.00
2022-12-29T05:26:41.657Z,100.00
2022-12-29T05:29:13.663Z,100.00
2022-12-29T05:31:45.766Z,100.00
2022-12-29T05:34:17.773Z,100.00
2022-12-29T05:36:50.475Z,100.00
2022-12-29T05:39:22.681Z,100.00
2022-12-29T05:41:54.674Z,100.00
2022-12-29T05:44:26.806Z,100.00
2022-12-29T05:46:58.816Z,100.00
2022-12-29T05:49:30.880Z,100.00
2022-12-29T05:52:02.801Z,100.00
2022-12-29T05:54:34.771Z,100.00
2022-12-29T05:57:06.838Z,100.00
2022-12-29T05:59:38.797Z,100.00
2022-12-29T06:02:11.667Z,100.00
2022-12-29T06:04:43.731Z,100.00
2022-12-29T06:07:15.737Z,100.00
2022-12-29T06:09:47.688Z,100.00
2022-12-29T06:12:19.651Z,100.00
2022-12-29T06:14:51.634Z,100.00
2022-12-29T06:17:23.558Z,100.00
2022-12-29T06:19:55.577Z,100.00
2022-12-29T06:22:27.550Z,100.00
2022-12-29T06:25:04.640Z,100.00
2022-12-29T06:27:37.270Z,100.00
2022-12-29T06:30:10.424Z,100.00
2022-12-29T06:32:42.656Z,100.00
2022-12-29T06:35:14.648Z,100.00
2022-12-29T06:37:46.615Z,100.00
2022-12-29T06:40:19.034Z,100.00
2022-12-29T06:42:50.949Z,100.00
2022-12-29T06:45:22.932Z,100.00
2022-12-29T06:47:54.876Z,100.00
2022-12-29T06:50:26.813Z,100.00
2022-12-29T06:52:58.817Z,100.00
2022-12-29T06:55:30.777Z,100.00
2022-12-29T06:58:02.743Z,100.00
2022-12-29T07:00:35.705Z,100.00
2022-12-29T07:03:07.861Z,100.00
2022-12-29T07:05:39.901Z,100.00
2022-12-29T07:08:11.922Z,100.00
2022-12-29T07:10:43.905Z,100.00
2022-12-29T07:13:15.869Z,100.00
2022-12-29T07:15:47.819Z,100.00
2022-12-29T07:18:19.806Z,100.00
2022-12-29T07:20:51.758Z,100.00
2022-12-29T07:23:23.675Z,100.00
2022-12-29T07:26:08.374Z,100.00
2022-12-29T07:28:40.570Z,100.00
2022-12-29T07:31:19.547Z,100.00
2022-12-29T07:33:51.540Z,100.00
2022-12-29T07:36:26.063Z,100.00
2022-12-29T07:39:01.490Z,100.00
2022-12-29T07:41:33.873Z,100.00
2022-12-29T07:44:05.902Z,100.00
2022-12-29T07:46:54.479Z,100.00
2022-12-29T07:49:28.838Z,100.00
2022-12-29T07:52:00.948Z,100.00
2022-12-29T07:54:32.992Z,100.00
2022-12-29T07:57:06.887Z,100.00
2022-12-29T07:59:38.830Z,100.00
2022-12-29T08:02:13.901Z,100.00
2022-12-29T08:04:45.958Z,100.00
2022-12-29T08:07:17.946Z,100.00
2022-12-29T08:09:49.931Z,100.00
2022-12-29T08:12:21.991Z,100.00
2022-12-29T08:14:54.576Z,100.00
2022-12-29T08:17:26.606Z,100.00
2022-12-29T08:19:58.674Z,100.00
2022-12-29T08:22:30.641Z,100.00
2022-12-29T08:25:02.704Z,100.00
2022-12-29T08:27:34.633Z,100.00
2022-12-29T08:30:07.559Z,100.00
2022-12-29T08:32:39.530Z,100.00
2022-12-29T08:35:11.640Z,100.00
2022-12-29T08:37:44.015Z,100.00
2022-12-29T08:40:16.333Z,100.00
2022-12-29T08:42:48.296Z,100.00
2022-12-29T08:45:20.501Z,100.00
2022-12-29T08:47:52.475Z,100.00
2022-12-29T08:50:24.465Z,100.00
2022-12-29T08:52:56.528Z,100.00
2022-12-29T08:55:28.495Z,100.00
2022-12-29T08:58:00.499Z,100.00
2022-12-29T09:00:32.473Z,100.00
2022-12-29T09:03:04.628Z,100.00
2022-12-29T09:05:36.814Z,100.00
2022-12-29T09:08:08.758Z,100.00
2022-12-29T09:10:40.768Z,100.00
2022-12-29T09:13:14.780Z,100.00
2022-12-29T09:15:46.789Z,100.00
2022-12-29T09:18:21.347Z,100.00
2022-12-29T09:21:02.112Z,100.00
2022-12-29T09:23:34.802Z,100.00
2022-12-29T09:26:08.450Z,99.17
2022-12-29T09:28:41.253Z,99.16
2022-12-29T09:31:13.621Z,97.38
2022-12-29T09:33:45.759Z,97.17
2022-12-29T09:36:17.690Z,97.16
2022-12-29T09:38:49.679Z,95.29
2022-12-29T09:41:30.645Z,95.02
2022-12-29T09:44:20.187Z,94.23
2022-12-29T09:46:55.032Z,95.60
2022-12-29T09:49:57.979Z,94.26
2022-12-29T09:52:58.617Z,94.73
2022-12-29T09:55:40.192Z,93.78
2022-12-29T09:58:18.015Z,94.67
2022-12-29T10:01:23.237Z,94.88
2022-12-29T10:03:58.475Z,95.22
2022-12-29T10:07:03.666Z,95.78
2022-12-29T10:10:02.505Z,95.01
2022-12-29T10:12:53.320Z,93.85
2022-12-29T10:16:16.154Z,93.41
2022-12-29T10:18:57.094Z,92.82
2022-12-29T10:22:02.364Z,92.63
2022-12-29T10:24:39.023Z,92.17
2022-12-29T10:27:14.405Z,91.49
2022-12-29T10:29:56.440Z,91.32
2022-12-29T10:32:33.641Z,90.56
2022-12-29T10:35:19.356Z,90.77
2022-12-29T10:38:11.457Z,89.26
2022-12-29T10:40:59.737Z,89.16
2022-12-29T10:43:55.100Z,90.74
2022-12-29T10:46:34.713Z,92.45
2022-12-29T10:49:21.224Z,93.81
2022-12-29T10:51:58.502Z,93.23
2022-12-29T10:55:01.490Z,93.65
2022-12-29T10:57:47.853Z,94.31
2022-12-29T11:00:22.919Z,95.54
2022-12-29T11:03:04.057Z,96.50
2022-12-29T11:05:54.855Z,97.29
2022-12-29T11:08:32.557Z,97.72
2022-12-29T11:11:08.789Z,96.52
2022-12-29T11:13:58.054Z,96.20
2022-12-29T11:16:33.913Z,95.56
2022-12-29T11:19:06.390Z,94.69
2022-12-29T11:21:42.936Z,93.27
2022-12-29T11:24:25.338Z,91.93
2022-12-29T11:27:20.573Z,91.01
2022-12-29T11:29:54.923Z,90.14
2022-12-29T11:32:33.073Z,88.79
2022-12-29T11:35:05.817Z,87.71
2022-12-29T11:37:41.320Z,86.18
2022-12-29T11:40:21.931Z,85.54
2022-12-29T11:43:03.800Z,85.23
2022-12-29T11:45:38.322Z,84.26
2022-12-29T11:48:23.189Z,84.35
2022-12-29T11:51:00.711Z,84.70
2022-12-29T11:53:48.635Z,83.57
2022-12-29T11:56:43.045Z,82.82
2022-12-29T11:59:35.277Z,83.72
2022-12-29T12:03:00.157Z,83.50
2022-12-29T12:05:57.065Z,82.25
2022-12-29T12:08:48.796Z,81.65
2022-12-29T12:11:27.728Z,81.08
2022-12-29T12:14:13.453Z,81.78
2022-12-29T12:16:55.876Z,81.45
2022-12-29T12:19:58.320Z,83.26
2022-12-29T12:22:54.600Z,82.92
2022-12-29T12:25:38.460Z,83.75
2022-12-29T12:28:21.938Z,82.52
2022-12-29T12:30:58.631Z,82.64
2022-12-29T12:33:37.522Z,82.83
2022-12-29T12:36:19.933Z,82.02
2022-12-29T12:39:24.564Z,82.72
2022-12-29T12:42:19.296Z,84.05
2022-12-29T12:45:22.221Z,84.37
2022-12-29T12:48:32.940Z,84.44
2022-12-29T12:51:48.326Z,87.72
2022-12-29T12:54:59.673Z,90.08
2022-12-29T12:58:06.603Z,92.01
2022-12-29T13:01:19.957Z,92.85
2022-12-29T13:04:18.273Z,93.77
2022-12-29T13:07:03.416Z,94.05
2022-12-29T13:10:16.292Z,92.97
2022-12-29T13:13:35.872Z,94.79
2022-12-29T13:16:41.602Z,95.74
2022-12-29T13:19:40.806Z,97.87
2022-12-29T13:22:39.589Z,96.56
2022-12-29T13:25:47.740Z,97.71
2022-12-29T13:28:51.163Z,100.00
2022-12-29T13:32:13.803Z,100.00
2022-12-29T13:35:33.275Z,99.54
2022-12-29T13:38:20.237Z,98.43
2022-12-29T13:40:58.450Z,96.68
2022-12-29T13:43:33.189Z,96.12
2022-12-29T13:46:14.347Z,94.16
2022-12-29T13:49:09.999Z,93.36
2022-12-29T13:51:49.612Z,92.31
2022-12-29T13:54:54.341Z,91.36
2022-12-29T13:58:04.910Z,91.32
2022-12-29T14:01:17.332Z,90.60
2022-12-29T14:04:02.604Z,90.68
2022-12-29T14:06:41.672Z,89.73
2022-12-29T14:09:50.061Z,90.38
2022-12-29T14:12:34.682Z,90.19
2022-12-29T14:15:12.728Z,89.90
2022-12-29T14:17:45.847Z,89.90
2022-12-29T14:20:26.953Z,89.96
2022-12-29T14:23:09.330Z,89.05
2022-12-29T14:25:57.768Z,89.18
2022-12-29T14:28:36.027Z,89.27
2022-12-29T14:31:19.547Z,89.15
2022-12-29T14:34:10.275Z,89.45
2022-12-29T14:36:57.724Z,89.52
2022-12-29T14:39:43.604Z,89.29
2022-12-29T14:42:23.520Z,91.30
2022-12-29T14:45:27.712Z,92.41
2022-12-29T14:48:00.361Z,92.08
2022-12-29T14:50:44.465Z,91.39
2022-12-29T14:53:44.456Z,92.48
2022-12-29T14:56:21.260Z,95.41
2022-12-29T14:59:04.394Z,99.65
2022-12-29T15:01:50.226Z,100.00
2022-12-29T15:04:27.922Z,100.00
2022-12-29T15:07:04.435Z,100.00
2022-12-29T15:09:50.479Z,100.00
2022-12-29T15:12:48.952Z,100.00
2022-12-29T15:15:24.243Z,100.00
2022-12-29T15:17:56.306Z,100.00
2022-12-29T15:20:32.600Z,100.00
2022-12-29T15:23:12.471Z,100.00
2022-12-29T15:25:58.977Z,100.00
2022-12-29T15:28:39.869Z,100.00
2022-12-29T15:31:27.812Z,100.00
2022-12-29T15:34:13.523Z,100.00
2022-12-29T15:36:45.568Z,100.00
2022-12-29T15:39:47.042Z,100.00
2022-12-29T15:42:43.843Z,100.00
2022-12-29T15:45:16.578Z,100.00
2022-12-29T15:47:50.914Z,100.00
2022-12-29T15:50:32.012Z,100.00
2022-12-29T15:53:12.465Z,100.00
2022-12-29T15:55:45.552Z,100.00
2022-12-29T15:58:29.839Z,100.00
2022-12-29T16:01:03.043Z,100.00
2022-12-29T16:03:37.594Z,100.00
2022-12-29T16:06:27.405Z,100.00
2022-12-29T16:09:44.851Z,100.00
2022-12-29T16:12:22.321Z,100.00
2022-12-29T16:15:13.934Z,100.00
2022-12-29T16:17:54.061Z,100.00
2022-12-29T16:20:40.849Z,100.00
2022-12-29T16:23:27.272Z,100.00
2022-12-29T16:26:12.046Z,100.00
2022-12-29T16:28:44.473Z,100.00
2022-12-29T16:31:47.027Z,100.00
2022-12-29T16:34:38.656Z,100.00
2022-12-29T16:37:29.865Z,100.00
2022-12-29T16:40:34.129Z,100.00
2022-12-29T16:43:20.430Z,100.00
2022-12-29T16:45:52.596Z,100.00
2022-12-29T16:48:32.392Z,100.00
2022-12-29T16:51:17.472Z,100.00
2022-12-29T16:53:55.165Z,100.00
2022-12-29T16:56:35.735Z,99.98
2022-12-29T16:59:32.276Z,100.00
2022-12-29T17:02:15.557Z,99.81
2022-12-29T17:04:50.742Z,99.89
2022-12-29T17:07:26.655Z,100.00
2022-12-29T17:09:59.104Z,100.00
2022-12-29T17:12:34.917Z,100.00
2022-12-29T17:15:16.197Z,100.00
2022-12-29T17:17:50.487Z,100.00
2022-12-29T17:20:30.994Z,100.00
2022-12-29T17:23:05.896Z,100.00
2022-12-29T17:25:38.759Z,100.00
2022-12-29T17:28:27.759Z,100.00
2022-12-29T17:31:06.923Z,100.00
2022-12-29T17:33:40.391Z,100.00
2022-12-29T17:36:12.736Z,100.00
2022-12-29T17:38:44.744Z,100.00
2022-12-29T17:41:16.755Z,100.00
2022-12-29T17:43:48.741Z,100.00
2022-12-29T17:46:21.000Z,100.00
2022-12-29T17:48:54.042Z,100.00
2022-12-29T17:51:26.427Z,99.59
2022-12-29T17:53:58.420Z,99.39
2022-12-29T17:56:30.860Z,98.50
2022-12-29T17:59:02.883Z,98.33
2022-12-29T18:01:38.076Z,98.33
2022-12-29T18:04:21.934Z,98.13
2022-12-29T18:06:53.901Z,98.39
2022-12-29T18:09:25.964Z,97.77
2022-12-29T18:11:58.004Z,98.10
2022-12-29T18:14:30.013Z,99.25
2022-12-29T18:17:02.025Z,99.44
2022-12-29T18:19:36.083Z,99.81
2022-12-29T18:22:09.388Z,99.29
2022-12-29T18:24:41.453Z,98.51
2022-12-29T18:27:19.563Z,99.08
2022-12-29T18:29:51.871Z,99.51
2022-12-29T18:32:24.258Z,100.00
2022-12-29T18:34:56.269Z,99.71
2022-12-29T18:37:28.304Z,99.36
2022-12-29T18:40:00.551Z,99.06
2022-12-29T18:42:32.519Z,98.49
2022-12-29T18:45:19.533Z,98.93
2022-12-29T18:47:51.687Z,98.71
2022-12-29T18:50:23.724Z,98.52
2022-12-29T18:53:01.583Z,96.89
2022-12-29T18:55:35.816Z,96.78
2022-12-29T18:58:08.103Z,95.82
2022-12-29T19:00:40.707Z,96.13
2022-12-29T19:03:18.880Z,96.26
2022-12-29T19:05:51.325Z,97.17
2022-12-29T19:08:23.341Z,98.73
2022-12-29T19:10:55.437Z,99.28
2022-12-29T19:13:29.560Z,99.87
2022-12-29T19:16:01.647Z,99.72
2022-12-29T19:19:05.718Z,99.35
2022-12-29T19:21:25.764Z,98.54
2022-12-29T19:23:57.781Z,98.72
2022-12-29T19:26:39.452Z,99.06
2022-12-29T19:29:18.333Z,99.37
2022-12-29T19:31:50.516Z,99.84
2022-12-29T19:34:22.592Z,99.82
2022-12-29T19:36:54.575Z,100.00
2022-12-29T19:39:26.609Z,100.00
2022-12-29T19:42:03.562Z,100.00
2022-12-29T19:44:37.535Z,100.00
2022-12-29T19:47:09.775Z,100.00
2022-12-29T19:49:43.604Z,100.00
2022-12-29T19:52:16.046Z,100.00
2022-12-29T19:54:48.027Z,100.00
2022-12-29T19:57:21.917Z,100.00
2022-12-29T19:59:56.738Z,100.00
2022-12-29T20:02:34.869Z,100.00
2022-12-29T20:05:08.671Z,100.00
2022-12-29T20:07:41.527Z,100.00
2022-12-29T20:10:17.267Z,100.00
2022-12-29T20:12:49.354Z,100.00
2022-12-29T20:15:21.414Z,100.00
2022-12-29T20:20:45.589Z,100.00
2022-12-29T20:23:17.671Z,100.00
2022-12-29T20:25:56.341Z,100.00
2022-12-29T20:28:29.734Z,100.00
2022-12-29T20:31:08.716Z,100.00
2022-12-29T20:33:41.046Z,100.00
2022-12-29T20:36:20.951Z,100.00
2022-12-29T20:38:55.774Z,100.00
2022-12-29T20:41:31.483Z,100.00
2022-12-29T20:44:05.374Z,100.00
2022-12-29T20:46:43.542Z,100.00
2022-12-29T20:49:16.426Z,100.00
2022-12-29T20:52:05.797Z,100.00
2022-12-29T20:54:39.721Z,100.00
2022-12-29T20:57:13.473Z,100.00
2022-12-29T20:59:48.556Z,100.00
2022-12-29T21:02:23.279Z,100.00
2022-12-29T21:07:51.373Z,100.00
2022-12-29T21:10:23.653Z,100.00
2022-12-29T21:12:55.859Z,100.00
2022-12-29T21:15:32.920Z,100.00
2022-12-29T21:18:05.087Z,100.00
2022-12-29T21:20:37.433Z,100.00
2022-12-29T21:23:10.753Z,100.00
2022-12-29T21:25:45.372Z,100.00
2022-12-29T21:28:17.417Z,100.00
2022-12-29T21:30:50.775Z,100.00
2022-12-29T21:33:22.900Z,100.00
2022-12-29T21:35:54.866Z,100.00
2022-12-29T21:38:29.580Z,100.00
2022-12-29T21:41:15.540Z,100.00
2022-12-29T21:44:08.182Z,100.00
2022-12-29T21:46:42.338Z,100.00
2022-12-29T21:49:14.545Z,100.00
2022-12-29T21:51:53.717Z,100.00
2022-12-29T21:54:47.527Z,100.00
2022-12-29T21:57:38.245Z,100.00
2022-12-29T22:00:30.025Z,100.00
2022-12-29T22:03:23.318Z,100.00
2022-12-29T22:06:14.945Z,100.00
2022-12-29T22:09:05.665Z,100.00
2022-12-29T22:11:55.882Z,100.00
2022-12-29T22:14:27.915Z,100.00
2022-12-29T22:16:59.970Z,100.00
2022-12-29T22:19:31.936Z,100.00
2022-12-29T22:22:04.174Z,100.00
2022-12-29T22:24:36.219Z,99.74
2022-12-29T22:27:08.281Z,100.00
2022-12-29T22:29:41.413Z,100.00
2022-12-29T22:32:13.414Z,100.00
2022-12-29T22:34:47.226Z,100.00
2022-12-29T22:37:19.529Z,100.00
2022-12-29T22:39:51.598Z,100.00
2022-12-29T22:42:23.720Z,100.00
2022-12-29T22:44:55.700Z,100.00
2022-12-29T22:47:27.751Z,100.00
2022-12-29T22:50:00.460Z,100.00
2022-12-29T22:52:32.521Z,100.00
2022-12-29T22:55:07.207Z,100.00
2022-12-29T22:57:39.365Z,100.00
2022-12-29T23:00:11.706Z,100.00
2022-12-29T23:02:43.964Z,100.00
2022-12-29T23:05:16.136Z,100.00
2022-12-29T23:07:48.079Z,100.00
2022-12-29T23:10:20.075Z,100.00
2022-12-29T23:12:52.022Z,100.00
2022-12-29T23:15:24.024Z,100.00
2022-12-29T23:17:56.019Z,100.00
2022-12-29T23:20:27.983Z,100.00
2022-12-29T23:22:59.951Z,100.00
2022-12-29T23:25:31.948Z,100.00
2022-12-29T23:28:06.943Z,100.00
2022-12-29T23:30:38.922Z,100.00
2022-12-29T23:33:10.931Z,100.00
2022-12-29T23:35:42.908Z,100.00
2022-12-29T23:38:14.937Z,100.00
2022-12-29T23:40:46.909Z,100.00
2022-12-29T23:43:18.995Z,100.00
2022-12-29T23:45:51.444Z,100.00
2022-12-29T23:48:23.510Z,100.00
2022-12-29T23:50:55.896Z,100.00
2022-12-29T23:53:29.231Z,100.00
2022-12-29T23:56:01.504Z,100.00
2022-12-29T23:58:35.314Z,99.69
